sensor_id;sensor_type;location;lat;lon;timestamp;P1;durP1;ratioP1;P2;durP2;ratioP2
10605;SDS011;5350;42.698;23.148;2023-04-30T00:02:00;5.17;;;4.00;;
10605;SDS011;5350;42.698;23.148;2023-04-30T00:04:26;5.80;;;3.60;;
10605;SDS011;5350;42.698;23.148;2023-04-30T00:06:54;5.60;;;4.70;;
10605;SDS011;5350;42.698;23.148;2023-04-30T00:09:21;8.10;;;3.73;;
10605;SDS011;5350;42.698;23.148;2023-04-30T00:11:48;5.87;;;3.37;;
10605;SDS011;5350;42.698;23.148;2023-04-30T00:14:14;5.70;;;3.40;;
10605;SDS011;5350;42.698;23.148;2023-04-30T00:16:41;5.83;;;3.83;;
10605;SDS011;5350;42.698;23.148;2023-04-30T00:19:08;5.73;;;4.37;;
10605;SDS011;5350;42.698;23.148;2023-04-30T00:21:35;6.50;;;4.40;;
10605;SDS011;5350;42.698;23.148;2023-04-30T00:24:03;6.97;;;4.00;;
10605;SDS011;5350;42.698;23.148;2023-04-30T00:26:30;6.50;;;3.30;;
10605;SDS011;5350;42.698;23.148;2023-04-30T00:28:57;6.30;;;3.53;;
10605;SDS011;5350;42.698;23.148;2023-04-30T00:31:23;5.23;;;4.67;;
10605;SDS011;5350;42.698;23.148;2023-04-30T00:33:50;6.33;;;3.97;;
10605;SDS011;5350;42.698;23.148;2023-04-30T00:36:17;6.17;;;3.40;;
10605;SDS011;5350;42.698;23.148;2023-04-30T00:38:44;5.37;;;3.23;;
10605;SDS011;5350;42.698;23.148;2023-04-30T00:41:12;6.10;;;3.80;;
10605;SDS011;5350;42.698;23.148;2023-04-30T00:43:39;5.00;;;3.53;;
10605;SDS011;5350;42.698;23.148;2023-04-30T00:46:05;5.60;;;3.27;;
10605;SDS011;5350;42.698;23.148;2023-04-30T00:48:32;6.00;;;3.90;;
10605;SDS011;5350;42.698;23.148;2023-04-30T00:51:00;6.43;;;2.40;;
10605;SDS011;5350;42.698;23.148;2023-04-30T00:53:28;4.90;;;2.93;;
10605;SDS011;5350;42.698;23.148;2023-04-30T00:55:54;11.17;;;8.43;;
10605;SDS011;5350;42.698;23.148;2023-04-30T00:58:23;6.13;;;3.80;;
10605;SDS011;5350;42.698;23.148;2023-04-30T01:00:50;6.30;;;3.73;;
10605;SDS011;5350;42.698;23.148;2023-04-30T01:03:17;7.20;;;3.40;;
10605;SDS011;5350;42.698;23.148;2023-04-30T01:05:46;3.90;;;3.00;;
10605;SDS011;5350;42.698;23.148;2023-04-30T01:08:13;4.73;;;2.80;;
10605;SDS011;5350;42.698;23.148;2023-04-30T01:10:40;6.93;;;3.37;;
10605;SDS011;5350;42.698;23.148;2023-04-30T01:13:16;4.70;;;3.00;;
10605;SDS011;5350;42.698;23.148;2023-04-30T01:15:53;4.10;;;2.60;;
10605;SDS011;5350;42.698;23.148;2023-04-30T01:18:25;3.50;;;2.80;;
10605;SDS011;5350;42.698;23.148;2023-04-30T01:20:57;5.47;;;3.20;;
10605;SDS011;5350;42.698;23.148;2023-04-30T01:23:31;3.67;;;2.43;;
10605;SDS011;5350;42.698;23.148;2023-04-30T01:26:13;4.77;;;2.60;;
10605;SDS011;5350;42.698;23.148;2023-04-30T01:28:46;4.73;;;2.47;;
10605;SDS011;5350;42.698;23.148;2023-04-30T01:31:17;4.50;;;2.67;;
10605;SDS011;5350;42.698;23.148;2023-04-30T01:33:45;5.33;;;2.93;;
10605;SDS011;5350;42.698;23.148;2023-04-30T01:36:15;5.00;;;2.77;;
10605;SDS011;5350;42.698;23.148;2023-04-30T01:38:55;10.27;;;6.53;;
10605;SDS011;5350;42.698;23.148;2023-04-30T01:41:33;5.30;;;4.17;;
10605;SDS011;5350;42.698;23.148;2023-04-30T01:44:11;5.63;;;4.23;;
10605;SDS011;5350;42.698;23.148;2023-04-30T01:46:49;6.63;;;5.10;;
10605;SDS011;5350;42.698;23.148;2023-04-30T01:49:24;6.57;;;3.23;;
10605;SDS011;5350;42.698;23.148;2023-04-30T01:51:59;6.83;;;4.00;;
10605;SDS011;5350;42.698;23.148;2023-04-30T01:54:36;5.43;;;4.63;;
10605;SDS011;5350;42.698;23.148;2023-04-30T01:57:08;4.97;;;4.47;;
10605;SDS011;5350;42.698;23.148;2023-04-30T01:59:42;4.70;;;3.73;;
10605;SDS011;5350;42.698;23.148;2023-04-30T02:02:10;5.60;;;3.63;;
10605;SDS011;5350;42.698;23.148;2023-04-30T02:04:37;5.77;;;3.43;;
10605;SDS011;5350;42.698;23.148;2023-04-30T02:07:04;5.60;;;3.00;;
10605;SDS011;5350;42.698;23.148;2023-04-30T02:09:31;5.77;;;3.27;;
10605;SDS011;5350;42.698;23.148;2023-04-30T02:11:57;7.97;;;5.80;;
10605;SDS011;5350;42.698;23.148;2023-04-30T02:14:24;19.47;;;14.47;;
10605;SDS011;5350;42.698;23.148;2023-04-30T02:16:54;4.97;;;3.00;;
10605;SDS011;5350;42.698;23.148;2023-04-30T02:19:21;6.20;;;3.00;;
10605;SDS011;5350;42.698;23.148;2023-04-30T02:21:48;5.30;;;3.67;;
10605;SDS011;5350;42.698;23.148;2023-04-30T02:24:14;10.17;;;5.10;;
10605;SDS011;5350;42.698;23.148;2023-04-30T02:26:41;7.30;;;5.57;;
10605;SDS011;5350;42.698;23.148;2023-04-30T02:29:08;9.00;;;5.63;;
10605;SDS011;5350;42.698;23.148;2023-04-30T02:31:34;6.67;;;4.67;;
10605;SDS011;5350;42.698;23.148;2023-04-30T02:34:02;7.77;;;4.80;;
10605;SDS011;5350;42.698;23.148;2023-04-30T02:36:29;7.43;;;5.43;;
10605;SDS011;5350;42.698;23.148;2023-04-30T02:39:00;7.27;;;5.27;;
10605;SDS011;5350;42.698;23.148;2023-04-30T02:41:26;7.70;;;5.80;;
10605;SDS011;5350;42.698;23.148;2023-04-30T02:43:53;8.27;;;5.10;;
10605;SDS011;5350;42.698;23.148;2023-04-30T02:46:20;6.57;;;5.00;;
10605;SDS011;5350;42.698;23.148;2023-04-30T02:48:47;8.47;;;5.70;;
10605;SDS011;5350;42.698;23.148;2023-04-30T02:51:15;6.17;;;4.70;;
10605;SDS011;5350;42.698;23.148;2023-04-30T02:53:41;8.87;;;4.87;;
10605;SDS011;5350;42.698;23.148;2023-04-30T02:56:08;7.23;;;5.07;;
10605;SDS011;5350;42.698;23.148;2023-04-30T02:58:35;6.33;;;4.80;;
10605;SDS011;5350;42.698;23.148;2023-04-30T03:01:01;7.87;;;5.80;;
10605;SDS011;5350;42.698;23.148;2023-04-30T03:03:28;6.27;;;4.27;;
10605;SDS011;5350;42.698;23.148;2023-04-30T03:05:55;7.80;;;5.13;;
10605;SDS011;5350;42.698;23.148;2023-04-30T03:08:25;5.87;;;5.23;;
10605;SDS011;5350;42.698;23.148;2023-04-30T03:10:51;6.80;;;5.43;;
10605;SDS011;5350;42.698;23.148;2023-04-30T03:13:18;5.20;;;4.20;;
10605;SDS011;5350;42.698;23.148;2023-04-30T03:15:45;7.03;;;4.07;;
10605;SDS011;5350;42.698;23.148;2023-04-30T03:18:12;7.20;;;4.23;;
10605;SDS011;5350;42.698;23.148;2023-04-30T03:20:38;5.70;;;3.67;;
10605;SDS011;5350;42.698;23.148;2023-04-30T03:23:06;5.90;;;4.40;;
10605;SDS011;5350;42.698;23.148;2023-04-30T03:25:34;8.97;;;5.00;;
10605;SDS011;5350;42.698;23.148;2023-04-30T03:28:01;6.67;;;3.90;;
10605;SDS011;5350;42.698;23.148;2023-04-30T03:30:27;8.47;;;4.17;;
10605;SDS011;5350;42.698;23.148;2023-04-30T03:32:54;4.83;;;3.70;;
10605;SDS011;5350;42.698;23.148;2023-04-30T03:35:21;7.17;;;4.10;;
10605;SDS011;5350;42.698;23.148;2023-04-30T03:37:47;5.40;;;3.87;;
10605;SDS011;5350;42.698;23.148;2023-04-30T03:40:14;8.30;;;4.43;;
10605;SDS011;5350;42.698;23.148;2023-04-30T03:42:42;6.37;;;4.27;;
10605;SDS011;5350;42.698;23.148;2023-04-30T03:45:09;10.80;;;6.90;;
10605;SDS011;5350;42.698;23.148;2023-04-30T03:47:36;7.80;;;4.13;;
10605;SDS011;5350;42.698;23.148;2023-04-30T03:50:03;6.40;;;5.70;;
10605;SDS011;5350;42.698;23.148;2023-04-30T03:52:31;5.70;;;4.30;;
10605;SDS011;5350;42.698;23.148;2023-04-30T03:54:58;6.43;;;4.20;;
10605;SDS011;5350;42.698;23.148;2023-04-30T03:57:24;5.03;;;4.10;;
10605;SDS011;5350;42.698;23.148;2023-04-30T03:59:53;6.27;;;5.60;;
10605;SDS011;5350;42.698;23.148;2023-04-30T04:02:19;8.10;;;4.57;;
10605;SDS011;5350;42.698;23.148;2023-04-30T04:04:46;5.80;;;3.77;;
10605;SDS011;5350;42.698;23.148;2023-04-30T04:07:14;5.33;;;4.07;;
10605;SDS011;5350;42.698;23.148;2023-04-30T04:09:41;5.37;;;3.90;;
10605;SDS011;5350;42.698;23.148;2023-04-30T04:12:07;8.97;;;4.70;;
10605;SDS011;5350;42.698;23.148;2023-04-30T04:14:34;6.40;;;3.70;;
10605;SDS011;5350;42.698;23.148;2023-04-30T04:17:02;7.37;;;4.17;;
10605;SDS011;5350;42.698;23.148;2023-04-30T04:19:29;5.77;;;4.00;;
10605;SDS011;5350;42.698;23.148;2023-04-30T04:21:56;4.93;;;4.43;;
10605;SDS011;5350;42.698;23.148;2023-04-30T04:24:23;6.27;;;4.03;;
10605;SDS011;5350;42.698;23.148;2023-04-30T04:26:50;7.87;;;4.30;;
10605;SDS011;5350;42.698;23.148;2023-04-30T04:29:17;6.83;;;4.47;;
10605;SDS011;5350;42.698;23.148;2023-04-30T04:31:44;5.57;;;3.87;;
10605;SDS011;5350;42.698;23.148;2023-04-30T04:34:14;6.97;;;4.03;;
10605;SDS011;5350;42.698;23.148;2023-04-30T04:36:41;7.23;;;4.27;;
10605;SDS011;5350;42.698;23.148;2023-04-30T04:39:07;6.17;;;4.47;;
10605;SDS011;5350;42.698;23.148;2023-04-30T04:41:35;9.93;;;5.23;;
10605;SDS011;5350;42.698;23.148;2023-04-30T04:44:02;8.73;;;4.90;;
10605;SDS011;5350;42.698;23.148;2023-04-30T04:46:30;10.83;;;6.03;;
10605;SDS011;5350;42.698;23.148;2023-04-30T04:48:57;13.83;;;6.97;;
10605;SDS011;5350;42.698;23.148;2023-04-30T04:51:25;9.30;;;6.00;;
10605;SDS011;5350;42.698;23.148;2023-04-30T04:53:52;10.67;;;6.57;;
10605;SDS011;5350;42.698;23.148;2023-04-30T04:56:18;11.67;;;6.37;;
10605;SDS011;5350;42.698;23.148;2023-04-30T04:58:45;10.97;;;6.77;;
10605;SDS011;5350;42.698;23.148;2023-04-30T05:01:12;11.33;;;7.53;;
10605;SDS011;5350;42.698;23.148;2023-04-30T05:03:39;11.33;;;6.73;;
10605;SDS011;5350;42.698;23.148;2023-04-30T05:06:06;12.10;;;7.50;;
10605;SDS011;5350;42.698;23.148;2023-04-30T05:08:34;11.97;;;6.47;;
10605;SDS011;5350;42.698;23.148;2023-04-30T05:11:01;12.13;;;6.80;;
10605;SDS011;5350;42.698;23.148;2023-04-30T05:13:27;11.20;;;6.37;;
10605;SDS011;5350;42.698;23.148;2023-04-30T05:15:54;12.00;;;7.17;;
10605;SDS011;5350;42.698;23.148;2023-04-30T05:18:21;10.50;;;7.03;;
10605;SDS011;5350;42.698;23.148;2023-04-30T05:20:48;10.63;;;7.73;;
10605;SDS011;5350;42.698;23.148;2023-04-30T05:23:14;12.23;;;7.07;;
10605;SDS011;5350;42.698;23.148;2023-04-30T05:25:42;11.10;;;6.43;;
10605;SDS011;5350;42.698;23.148;2023-04-30T05:28:09;12.40;;;8.20;;
10605;SDS011;5350;42.698;23.148;2023-04-30T05:30:36;22.23;;;12.93;;
10605;SDS011;5350;42.698;23.148;2023-04-30T05:33:03;20.27;;;10.63;;
10605;SDS011;5350;42.698;23.148;2023-04-30T05:35:29;13.20;;;8.70;;
10605;SDS011;5350;42.698;23.148;2023-04-30T05:37:59;10.83;;;7.63;;
10605;SDS011;5350;42.698;23.148;2023-04-30T05:40:26;11.40;;;7.87;;
10605;SDS011;5350;42.698;23.148;2023-04-30T05:42:55;11.70;;;8.17;;
10605;SDS011;5350;42.698;23.148;2023-04-30T05:45:22;21.60;;;11.53;;
10605;SDS011;5350;42.698;23.148;2023-04-30T05:47:48;41.00;;;22.40;;
10605;SDS011;5350;42.698;23.148;2023-04-30T05:50:15;35.37;;;20.53;;
10605;SDS011;5350;42.698;23.148;2023-04-30T05:52:42;44.30;;;24.90;;
10605;SDS011;5350;42.698;23.148;2023-04-30T05:55:09;38.50;;;20.70;;
10605;SDS011;5350;42.698;23.148;2023-04-30T05:57:36;20.77;;;13.37;;
10605;SDS011;5350;42.698;23.148;2023-04-30T06:00:05;15.40;;;9.67;;
10605;SDS011;5350;42.698;23.148;2023-04-30T06:02:33;12.47;;;7.73;;
10605;SDS011;5350;42.698;23.148;2023-04-30T06:04:59;13.73;;;7.13;;
10605;SDS011;5350;42.698;23.148;2023-04-30T06:07:27;13.43;;;7.60;;
10605;SDS011;5350;42.698;23.148;2023-04-30T06:09:54;14.30;;;8.43;;
10605;SDS011;5350;42.698;23.148;2023-04-30T06:12:21;17.60;;;8.43;;
10605;SDS011;5350;42.698;23.148;2023-04-30T06:14:48;15.63;;;8.15;;
10605;SDS011;5350;42.698;23.148;2023-04-30T06:17:16;8.95;;;6.68;;
10605;SDS011;5350;42.698;23.148;2023-04-30T06:19:43;15.60;;;10.57;;
10605;SDS011;5350;42.698;23.148;2023-04-30T06:22:10;14.40;;;7.20;;
10605;SDS011;5350;42.698;23.148;2023-04-30T06:24:36;10.73;;;6.80;;
10605;SDS011;5350;42.698;23.148;2023-04-30T06:27:03;9.73;;;5.80;;
10605;SDS011;5350;42.698;23.148;2023-04-30T06:29:30;11.35;;;5.80;;
10605;SDS011;5350;42.698;23.148;2023-04-30T06:31:56;13.83;;;7.70;;
10605;SDS011;5350;42.698;23.148;2023-04-30T06:34:25;14.88;;;7.05;;
10605;SDS011;5350;42.698;23.148;2023-04-30T06:36:51;9.13;;;4.90;;
10605;SDS011;5350;42.698;23.148;2023-04-30T06:39:18;11.32;;;4.68;;
10605;SDS011;5350;42.698;23.148;2023-04-30T06:41:45;8.07;;;4.75;;
10605;SDS011;5350;42.698;23.148;2023-04-30T06:44:12;10.05;;;4.95;;
10605;SDS011;5350;42.698;23.148;2023-04-30T06:46:39;9.13;;;4.53;;
10605;SDS011;5350;42.698;23.148;2023-04-30T06:49:06;9.73;;;4.65;;
10605;SDS011;5350;42.698;23.148;2023-04-30T06:51:34;10.77;;;5.10;;
10605;SDS011;5350;42.698;23.148;2023-04-30T06:54:00;10.07;;;4.57;;
10605;SDS011;5350;42.698;23.148;2023-04-30T06:56:27;5.72;;;3.88;;
10605;SDS011;5350;42.698;23.148;2023-04-30T06:58:54;5.80;;;3.75;;
10605;SDS011;5350;42.698;23.148;2023-04-30T07:01:21;5.72;;;3.10;;
10605;SDS011;5350;42.698;23.148;2023-04-30T07:03:48;6.63;;;3.47;;
10605;SDS011;5350;42.698;23.148;2023-04-30T07:06:15;3.75;;;2.70;;
10605;SDS011;5350;42.698;23.148;2023-04-30T07:08:43;6.40;;;3.38;;
10605;SDS011;5350;42.698;23.148;2023-04-30T07:11:10;5.53;;;3.00;;
10605;SDS011;5350;42.698;23.148;2023-04-30T07:13:37;8.32;;;3.90;;
10605;SDS011;5350;42.698;23.148;2023-04-30T07:16:04;6.57;;;3.53;;
10605;SDS011;5350;42.698;23.148;2023-04-30T07:18:33;4.22;;;2.85;;
10605;SDS011;5350;42.698;23.148;2023-04-30T07:21:00;3.67;;;2.35;;
10605;SDS011;5350;42.698;23.148;2023-04-30T07:23:28;6.25;;;2.58;;
10605;SDS011;5350;42.698;23.148;2023-04-30T07:25:56;6.93;;;3.30;;
10605;SDS011;5350;42.698;23.148;2023-04-30T07:28:22;6.30;;;3.30;;
10605;SDS011;5350;42.698;23.148;2023-04-30T07:30:49;5.20;;;2.42;;
10605;SDS011;5350;42.698;23.148;2023-04-30T07:33:16;5.50;;;2.90;;
10605;SDS011;5350;42.698;23.148;2023-04-30T07:35:43;5.80;;;3.67;;
10605;SDS011;5350;42.698;23.148;2023-04-30T07:38:09;8.90;;;3.97;;
10605;SDS011;5350;42.698;23.148;2023-04-30T07:40:36;5.45;;;3.53;;
10605;SDS011;5350;42.698;23.148;2023-04-30T07:43:04;7.20;;;3.53;;
10605;SDS011;5350;42.698;23.148;2023-04-30T07:45:31;5.93;;;3.03;;
10605;SDS011;5350;42.698;23.148;2023-04-30T07:47:59;4.65;;;2.70;;
10605;SDS011;5350;42.698;23.148;2023-04-30T07:50:26;5.10;;;2.70;;
10605;SDS011;5350;42.698;23.148;2023-04-30T07:52:57;4.75;;;2.53;;
10605;SDS011;5350;42.698;23.148;2023-04-30T07:55:24;3.70;;;2.42;;
10605;SDS011;5350;42.698;23.148;2023-04-30T07:57:51;3.75;;;2.60;;
10605;SDS011;5350;42.698;23.148;2023-04-30T08:00:19;2.90;;;2.45;;
10605;SDS011;5350;42.698;23.148;2023-04-30T08:02:46;5.15;;;2.83;;
10605;SDS011;5350;42.698;23.148;2023-04-30T08:05:13;3.17;;;2.50;;
10605;SDS011;5350;42.698;23.148;2023-04-30T08:07:40;3.80;;;2.13;;
10605;SDS011;5350;42.698;23.148;2023-04-30T08:10:08;4.45;;;2.22;;
10605;SDS011;5350;42.698;23.148;2023-04-30T08:12:35;3.28;;;1.98;;
10605;SDS011;5350;42.698;23.148;2023-04-30T08:15:03;4.20;;;2.20;;
10605;SDS011;5350;42.698;23.148;2023-04-30T08:17:33;5.07;;;2.33;;
10605;SDS011;5350;42.698;23.148;2023-04-30T08:20:00;3.28;;;2.28;;
10605;SDS011;5350;42.698;23.148;2023-04-30T08:22:28;2.72;;;2.20;;
10605;SDS011;5350;42.698;23.148;2023-04-30T08:24:55;4.85;;;2.30;;
10605;SDS011;5350;42.698;23.148;2023-04-30T08:27:22;4.88;;;2.30;;
10605;SDS011;5350;42.698;23.148;2023-04-30T08:29:49;2.83;;;2.45;;
10605;SDS011;5350;42.698;23.148;2023-04-30T08:32:17;4.82;;;2.40;;
10605;SDS011;5350;42.698;23.148;2023-04-30T08:34:45;4.22;;;2.22;;
10605;SDS011;5350;42.698;23.148;2023-04-30T08:37:12;3.65;;;2.90;;
10605;SDS011;5350;42.698;23.148;2023-04-30T08:39:39;5.22;;;2.88;;
10605;SDS011;5350;42.698;23.148;2023-04-30T08:42:07;3.53;;;2.35;;
10605;SDS011;5350;42.698;23.148;2023-04-30T08:44:35;3.00;;;2.70;;
10605;SDS011;5350;42.698;23.148;2023-04-30T08:47:03;3.05;;;2.20;;
10605;SDS011;5350;42.698;23.148;2023-04-30T08:49:32;3.53;;;2.25;;
10605;SDS011;5350;42.698;23.148;2023-04-30T08:52:01;2.30;;;2.10;;
10605;SDS011;5350;42.698;23.148;2023-04-30T08:54:29;2.10;;;2.00;;
10605;SDS011;5350;42.698;23.148;2023-04-30T08:56:57;2.88;;;2.42;;
10605;SDS011;5350;42.698;23.148;2023-04-30T08:59:23;4.45;;;2.65;;
10605;SDS011;5350;42.698;23.148;2023-04-30T09:01:50;2.88;;;2.67;;
10605;SDS011;5350;42.698;23.148;2023-04-30T09:04:17;2.85;;;2.65;;
10605;SDS011;5350;42.698;23.148;2023-04-30T09:06:44;3.17;;;2.85;;
10605;SDS011;5350;42.698;23.148;2023-04-30T09:09:12;2.67;;;2.42;;
10605;SDS011;5350;42.698;23.148;2023-04-30T09:11:40;7.28;;;2.97;;
10605;SDS011;5350;42.698;23.148;2023-04-30T09:14:07;3.15;;;2.50;;
10605;SDS011;5350;42.698;23.148;2023-04-30T09:16:44;2.00;;;1.90;;
10605;SDS011;5350;42.698;23.148;2023-04-30T09:19:22;2.42;;;2.00;;
10605;SDS011;5350;42.698;23.148;2023-04-30T09:21:50;3.50;;;2.35;;
10605;SDS011;5350;42.698;23.148;2023-04-30T09:24:18;2.38;;;2.17;;
10605;SDS011;5350;42.698;23.148;2023-04-30T09:26:45;3.10;;;2.45;;
10605;SDS011;5350;42.698;23.148;2023-04-30T09:29:12;2.15;;;2.00;;
10605;SDS011;5350;42.698;23.148;2023-04-30T09:31:42;2.92;;;2.67;;
10605;SDS011;5350;42.698;23.148;2023-04-30T09:34:12;3.22;;;2.33;;
10605;SDS011;5350;42.698;23.148;2023-04-30T09:36:50;1.98;;;1.88;;
10605;SDS011;5350;42.698;23.148;2023-04-30T09:39:20;2.92;;;1.17;;
10605;SDS011;5350;42.698;23.148;2023-04-30T09:41:47;1.63;;;1.13;;
10605;SDS011;5350;42.698;23.148;2023-04-30T09:44:25;2.45;;;1.27;;
10605;SDS011;5350;42.698;23.148;2023-04-30T09:46:53;1.63;;;1.38;;
10605;SDS011;5350;42.698;23.148;2023-04-30T09:49:21;2.00;;;1.83;;
10605;SDS011;5350;42.698;23.148;2023-04-30T09:51:54;3.97;;;1.65;;
10605;SDS011;5350;42.698;23.148;2023-04-30T09:54:24;2.20;;;2.00;;
10605;SDS011;5350;42.698;23.148;2023-04-30T09:56:52;4.50;;;2.47;;
10605;SDS011;5350;42.698;23.148;2023-04-30T09:59:20;2.65;;;2.00;;
10605;SDS011;5350;42.698;23.148;2023-04-30T10:01:48;5.22;;;2.53;;
10605;SDS011;5350;42.698;23.148;2023-04-30T10:04:18;2.95;;;2.75;;
10605;SDS011;5350;42.698;23.148;2023-04-30T10:06:46;3.65;;;2.45;;
10605;SDS011;5350;42.698;23.148;2023-04-30T10:09:14;3.03;;;2.72;;
10605;SDS011;5350;42.698;23.148;2023-04-30T10:11:43;3.33;;;3.03;;
10605;SDS011;5350;42.698;23.148;2023-04-30T10:14:10;3.70;;;3.17;;
10605;SDS011;5350;42.698;23.148;2023-04-30T10:16:42;3.35;;;2.55;;
10605;SDS011;5350;42.698;23.148;2023-04-30T10:19:18;3.55;;;2.72;;
10605;SDS011;5350;42.698;23.148;2023-04-30T10:21:47;3.83;;;2.90;;
10605;SDS011;5350;42.698;23.148;2023-04-30T10:24:15;3.45;;;2.30;;
10605;SDS011;5350;42.698;23.148;2023-04-30T10:26:47;2.97;;;2.25;;
10605;SDS011;5350;42.698;23.148;2023-04-30T10:29:14;4.07;;;2.45;;
10605;SDS011;5350;42.698;23.148;2023-04-30T10:31:44;3.95;;;2.78;;
10605;SDS011;5350;42.698;23.148;2023-04-30T10:34:14;3.38;;;2.35;;
10605;SDS011;5350;42.698;23.148;2023-04-30T10:36:47;4.28;;;2.20;;
10605;SDS011;5350;42.698;23.148;2023-04-30T10:39:19;4.75;;;2.45;;
10605;SDS011;5350;42.698;23.148;2023-04-30T10:41:48;4.82;;;2.80;;
10605;SDS011;5350;42.698;23.148;2023-04-30T10:44:19;2.03;;;1.92;;
10605;SDS011;5350;42.698;23.148;2023-04-30T10:46:48;2.95;;;2.25;;
10605;SDS011;5350;42.698;23.148;2023-04-30T10:49:14;4.90;;;2.13;;
10605;SDS011;5350;42.698;23.148;2023-04-30T10:51:50;2.70;;;2.50;;
10605;SDS011;5350;42.698;23.148;2023-04-30T10:54:21;2.75;;;1.83;;
10605;SDS011;5350;42.698;23.148;2023-04-30T10:56:53;1.98;;;1.88;;
10605;SDS011;5350;42.698;23.148;2023-04-30T10:59:22;2.00;;;1.90;;
10605;SDS011;5350;42.698;23.148;2023-04-30T11:01:56;3.65;;;2.38;;
10605;SDS011;5350;42.698;23.148;2023-04-30T11:04:24;3.28;;;2.30;;
10605;SDS011;5350;42.698;23.148;2023-04-30T11:06:54;3.92;;;2.22;;
10605;SDS011;5350;42.698;23.148;2023-04-30T11:09:34;5.65;;;2.50;;
10605;SDS011;5350;42.698;23.148;2023-04-30T11:12:08;3.13;;;2.78;;
10605;SDS011;5350;42.698;23.148;2023-04-30T11:14:38;5.30;;;3.90;;
10605;SDS011;5350;42.698;23.148;2023-04-30T11:17:08;4.63;;;3.33;;
10605;SDS011;5350;42.698;23.148;2023-04-30T11:19:40;6.28;;;2.92;;
10605;SDS011;5350;42.698;23.148;2023-04-30T11:22:15;3.35;;;3.03;;
10605;SDS011;5350;42.698;23.148;2023-04-30T11:27:39;3.50;;;2.80;;
10605;SDS011;5350;42.698;23.148;2023-04-30T11:30:09;3.13;;;2.92;;
10605;SDS011;5350;42.698;23.148;2023-04-30T11:32:39;4.72;;;2.70;;
10605;SDS011;5350;42.698;23.148;2023-04-30T11:35:07;3.70;;;2.33;;
10605;SDS011;5350;42.698;23.148;2023-04-30T11:37:34;3.05;;;2.20;;
10605;SDS011;5350;42.698;23.148;2023-04-30T11:40:03;3.03;;;2.20;;
10605;SDS011;5350;42.698;23.148;2023-04-30T11:42:32;6.00;;;2.55;;
10605;SDS011;5350;42.698;23.148;2023-04-30T11:45:07;4.10;;;2.20;;
10605;SDS011;5350;42.698;23.148;2023-04-30T11:47:39;2.08;;;1.90;;
10605;SDS011;5350;42.698;23.148;2023-04-30T11:50:07;2.70;;;2.50;;
10605;SDS011;5350;42.698;23.148;2023-04-30T11:52:34;3.00;;;2.30;;
10605;SDS011;5350;42.698;23.148;2023-04-30T11:55:04;2.60;;;1.85;;
10605;SDS011;5350;42.698;23.148;2023-04-30T11:57:38;1.80;;;1.70;;
10605;SDS011;5350;42.698;23.148;2023-04-30T12:00:11;2.42;;;1.90;;
10605;SDS011;5350;42.698;23.148;2023-04-30T12:02:39;12.88;;;2.63;;
10605;SDS011;5350;42.698;23.148;2023-04-30T12:05:13;2.08;;;1.38;;
10605;SDS011;5350;42.698;23.148;2023-04-30T12:07:48;1.65;;;1.40;;
10605;SDS011;5350;42.698;23.148;2023-04-30T12:10:17;2.05;;;1.60;;
10605;SDS011;5350;42.698;23.148;2023-04-30T12:12:45;1.65;;;1.35;;
10605;SDS011;5350;42.698;23.148;2023-04-30T12:15:15;2.35;;;1.70;;
10605;SDS011;5350;42.698;23.148;2023-04-30T12:17:43;1.48;;;1.38;;
10605;SDS011;5350;42.698;23.148;2023-04-30T12:20:12;7.15;;;1.90;;
10605;SDS011;5350;42.698;23.148;2023-04-30T12:22:40;2.88;;;2.00;;
10605;SDS011;5350;42.698;23.148;2023-04-30T12:25:10;2.17;;;1.77;;
10605;SDS011;5350;42.698;23.148;2023-04-30T12:27:39;2.40;;;2.20;;
10605;SDS011;5350;42.698;23.148;2023-04-30T12:30:07;2.33;;;2.13;;
10605;SDS011;5350;42.698;23.148;2023-04-30T12:32:40;3.15;;;2.20;;
10605;SDS011;5350;42.698;23.148;2023-04-30T12:35:08;3.83;;;1.70;;
10605;SDS011;5350;42.698;23.148;2023-04-30T12:37:40;3.47;;;2.20;;
10605;SDS011;5350;42.698;23.148;2023-04-30T12:40:08;2.60;;;2.13;;
10605;SDS011;5350;42.698;23.148;2023-04-30T12:42:35;2.70;;;2.42;;
10605;SDS011;5350;42.698;23.148;2023-04-30T12:45:02;2.20;;;2.00;;
10605;SDS011;5350;42.698;23.148;2023-04-30T12:47:30;1.92;;;1.80;;
10605;SDS011;5350;42.698;23.148;2023-04-30T12:49:58;1.77;;;1.67;;
10605;SDS011;5350;42.698;23.148;2023-04-30T12:52:26;3.67;;;2.10;;
10605;SDS011;5350;42.698;23.148;2023-04-30T12:54:52;1.40;;;1.30;;
10605;SDS011;5350;42.698;23.148;2023-04-30T12:57:20;1.35;;;1.02;;
10605;SDS011;5350;42.698;23.148;2023-04-30T12:59:56;1.50;;;0.57;;
10605;SDS011;5350;42.698;23.148;2023-04-30T13:02:25;0.73;;;0.73;;
10605;SDS011;5350;42.698;23.148;2023-04-30T13:04:55;0.55;;;0.55;;
10605;SDS011;5350;42.698;23.148;2023-04-30T13:07:23;1.90;;;1.40;;
10605;SDS011;5350;42.698;23.148;2023-04-30T13:09:50;3.33;;;2.35;;
10605;SDS011;5350;42.698;23.148;2023-04-30T13:12:17;3.13;;;1.58;;
10605;SDS011;5350;42.698;23.148;2023-04-30T13:14:44;1.00;;;0.90;;
10605;SDS011;5350;42.698;23.148;2023-04-30T13:17:11;1.92;;;1.20;;
10605;SDS011;5350;42.698;23.148;2023-04-30T13:19:38;1.40;;;0.80;;
10605;SDS011;5350;42.698;23.148;2023-04-30T13:22:05;0.73;;;0.73;;
10605;SDS011;5350;42.698;23.148;2023-04-30T13:24:33;1.48;;;1.13;;
10605;SDS011;5350;42.698;23.148;2023-04-30T13:26:59;1.27;;;1.17;;
10605;SDS011;5350;42.698;23.148;2023-04-30T13:29:26;1.63;;;1.52;;
10605;SDS011;5350;42.698;23.148;2023-04-30T13:31:53;3.80;;;3.00;;
10605;SDS011;5350;42.698;23.148;2023-04-30T13:34:20;1.70;;;1.60;;
10605;SDS011;5350;42.698;23.148;2023-04-30T13:36:47;5.22;;;3.65;;
10605;SDS011;5350;42.698;23.148;2023-04-30T13:39:13;7.32;;;3.25;;
10605;SDS011;5350;42.698;23.148;2023-04-30T13:41:41;9.32;;;6.47;;
10605;SDS011;5350;42.698;23.148;2023-04-30T13:44:09;3.50;;;2.53;;
10605;SDS011;5350;42.698;23.148;2023-04-30T13:46:36;2.33;;;0.90;;
10605;SDS011;5350;42.698;23.148;2023-04-30T13:49:03;0.90;;;0.90;;
10605;SDS011;5350;42.698;23.148;2023-04-30T13:51:30;1.15;;;1.05;;
10605;SDS011;5350;42.698;23.148;2023-04-30T13:53:56;1.02;;;0.80;;
10605;SDS011;5350;42.698;23.148;2023-04-30T13:56:23;5.82;;;1.10;;
10605;SDS011;5350;42.698;23.148;2023-04-30T13:58:52;1.33;;;1.00;;
10605;SDS011;5350;42.698;23.148;2023-04-30T14:01:18;1.15;;;1.05;;
10605;SDS011;5350;42.698;23.148;2023-04-30T14:03:45;1.02;;;0.88;;
10605;SDS011;5350;42.698;23.148;2023-04-30T14:06:12;2.53;;;1.10;;
10605;SDS011;5350;42.698;23.148;2023-04-30T14:08:39;1.70;;;1.00;;
10605;SDS011;5350;42.698;23.148;2023-04-30T14:11:06;3.88;;;1.48;;
10605;SDS011;5350;42.698;23.148;2023-04-30T14:13:33;2.33;;;1.40;;
10605;SDS011;5350;42.698;23.148;2023-04-30T14:16:01;3.55;;;1.80;;
10605;SDS011;5350;42.698;23.148;2023-04-30T14:18:28;1.38;;;1.20;;
10605;SDS011;5350;42.698;23.148;2023-04-30T14:20:55;1.45;;;1.17;;
10605;SDS011;5350;42.698;23.148;2023-04-30T14:23:22;0.90;;;0.90;;
10605;SDS011;5350;42.698;23.148;2023-04-30T14:25:50;1.30;;;1.20;;
10605;SDS011;5350;42.698;23.148;2023-04-30T14:28:18;1.08;;;0.98;;
10605;SDS011;5350;42.698;23.148;2023-04-30T14:30:44;0.98;;;0.80;;
10605;SDS011;5350;42.698;23.148;2023-04-30T14:33:13;0.90;;;0.85;;
10605;SDS011;5350;42.698;23.148;2023-04-30T14:35:39;1.15;;;0.73;;
10605;SDS011;5350;42.698;23.148;2023-04-30T14:38:06;1.25;;;1.13;;
10605;SDS011;5350;42.698;23.148;2023-04-30T14:40:33;3.55;;;1.10;;
10605;SDS011;5350;42.698;23.148;2023-04-30T14:43:00;1.10;;;1.00;;
10605;SDS011;5350;42.698;23.148;2023-04-30T14:45:26;1.45;;;1.02;;
10605;SDS011;5350;42.698;23.148;2023-04-30T14:47:53;2.38;;;1.30;;
10605;SDS011;5350;42.698;23.148;2023-04-30T14:50:21;2.92;;;1.20;;
10605;SDS011;5350;42.698;23.148;2023-04-30T14:52:48;1.05;;;0.98;;
10605;SDS011;5350;42.698;23.148;2023-04-30T14:55:15;1.40;;;1.33;;